Time;durP1;ratioP1;P1;durP2;ratioP2;P2;SDS_P1;SDS_P2;PMS_P1;PMS_P2;Temp;Humidity;BMP_temperature;BMP_pressure;BME280_temperature;BME280_humidity;BME280_pressure;Samples;Min_cycle;Max_cycle;Signal;HPM_P1;HPM_P2
2021/12/05 00:24:34;;;;;;;31.40;10.30;;;4.60;99.90;;;;;;5065105;28;20044;-81
2021/12/05 00:27:06;;;;;;;27.13;9.20;;;4.60;99.90;;;;;;5066286;28;20113;-82
2021/12/05 00:32:16;;;;;;;27.02;9.38;;;4.60;99.90;;;;;;5065815;28;20072;-81
2021/12/05 01:04:07;;;;;;;11.50;4.25;;;4.40;99.90;;;;;;5046344;28;20067;-82
2021/12/05 01:06:59;;;;;;;13.20;4.82;;;4.70;99.90;;;;;;5045215;28;20133;-81
2021/12/05 01:14:34;;;;;;;17.58;4.30;;;4.70;99.90;;;;;;5046639;28;20075;-81
2021/12/05 01:17:02;;;;;;;10.38;4.85;;;4.70;99.90;;;;;;5030844;28;20048;-82
2021/12/05 01:19:30;;;;;;;7.68;3.42;;;4.60;99.90;;;;;;5046780;28;20090;-81
2021/12/05 01:22:05;;;;;;;9.43;4.18;;;4.60;99.90;;;;;;5046666;28;20048;-81
2021/12/05 01:27:41;;;;;;;10.63;4.30;;;6.40;99.90;;;;;;5046648;28;20051;-81
2021/12/05 01:30:16;;;;;;;7.05;4.18;;;4.60;99.90;;;;;;5034284;28;20055;-81
2021/12/05 01:38:08;;;;;;;14.55;4.47;;;4.50;99.90;;;;;;5030101;28;20102;-81
2021/12/05 01:49:37;;;;;;;10.45;4.05;;;4.50;99.90;;;;;;5046513;28;20496;-81
2021/12/05 01:57:03;;;;;;;11.50;3.30;;;4.50;99.90;;;;;;5031940;28;20064;-81
2021/12/05 01:59:40;;;;;;;12.40;4.22;;;4.90;99.90;;;;;;5046037;28;20488;-81
2021/12/05 02:39:43;;;;;;;9.15;4.32;;;4.30;99.90;;;;;;5050596;28;20127;-81
2021/12/05 02:42:16;;;;;;;14.68;4.30;;;5.80;99.90;;;;;;5049660;28;20420;-82
2021/12/05 02:44:44;;;;;;;13.75;4.13;;;4.30;99.90;;;;;;5049152;28;20079;-81
2021/12/05 02:47:17;;;;;;;11.52;4.47;;;4.30;99.90;;;;;;5049519;28;20052;-81
2021/12/05 02:49:46;;;;;;;6.97;3.60;;;4.30;99.90;;;;;;5048167;28;20125;-82
2021/12/05 02:52:21;;;;;;;12.32;3.97;;;4.30;99.90;;;;;;5032974;28;20056;-81
2021/12/05 02:54:52;;;;;;;15.52;4.10;;;4.30;99.90;;;;;;5032117;28;20514;-82
2021/12/05 02:58:13;;;;;;;16.10;4.93;;;4.30;99.90;;;;;;5049465;28;20072;-82
2021/12/05 03:00:10;;;;;;;16.70;4.70;;;4.30;99.90;;;;;;5039061;28;20052;-81
2021/12/05 03:02:42;;;;;;;12.77;4.40;;;4.40;99.90;;;;;;5031532;28;20553;-81
2021/12/05 03:05:13;;;;;;;8.00;4.10;;;4.40;99.90;;;;;;5067637;28;20110;-82
2021/12/05 03:07:41;;;;;;;7.30;4.18;;;4.40;99.90;;;;;;5066719;28;20106;-82
2021/12/05 03:10:10;;;;;;;12.07;4.18;;;4.50;99.90;;;;;;5048914;28;20088;-82
2021/12/05 03:12:38;;;;;;;9.95;4.30;;;4.40;99.90;;;;;;5049134;28;20089;-82
2021/12/05 03:15:10;;;;;;;16.27;5.13;;;4.40;99.90;;;;;;5066674;28;20451;-81
2021/12/05 03:17:36;;;;;;;7.45;3.92;;;4.40;99.90;;;;;;5067862;28;20427;-82
2021/12/05 03:20:04;;;;;;;16.35;4.18;;;4.40;99.90;;;;;;5048027;28;20054;-81
2021/12/05 03:22:30;;;;;;;8.93;4.78;;;4.40;99.90;;;;;;5067077;28;20063;-82
2021/12/05 03:24:56;;;;;;;13.38;4.72;;;4.40;99.90;;;;;;5066735;28;20044;-81
2021/12/05 03:27:22;;;;;;;11.65;5.05;;;5.60;99.90;;;;;;5048316;28;20385;-81
2021/12/05 03:29:48;;;;;;;10.88;4.75;;;4.30;99.90;;;;;;5049143;28;20044;-82
2021/12/05 03:32:14;;;;;;;9.98;4.43;;;4.40;99.90;;;;;;5047814;28;20041;-82
2021/12/05 03:34:39;;;;;;;9.20;5.22;;;4.40;99.90;;;;;;5048994;28;20049;-81
2021/12/05 03:37:08;;;;;;;11.68;4.65;;;4.40;99.90;;;;;;5065798;28;20045;-81
2021/12/05 03:39:34;;;;;;;12.98;5.18;;;4.40;99.90;;;;;;5066692;28;20044;-81
2021/12/05 03:42:00;;;;;;;11.10;4.65;;;4.40;99.90;;;;;;5048003;28;20074;-81
2021/12/05 03:44:30;;;;;;;8.27;4.63;;;4.40;99.90;;;;;;5066406;28;20419;-81
2021/12/05 03:46:56;;;;;;;9.45;5.18;;;4.40;99.90;;;;;;5066667;28;20059;-81
2021/12/05 03:49:23;;;;;;;10.98;4.80;;;4.40;99.90;;;;;;5047985;28;20365;-81
2021/12/05 03:51:57;;;;;;;15.95;4.97;;;4.40;99.90;;;;;;5049158;28;20115;-81
2021/12/05 03:54:23;;;;;;;17.48;5.38;;;4.90;99.90;;;;;;5065539;28;20131;-81
2021/12/05 03:56:49;;;;;;;16.20;5.28;;;4.40;99.90;;;;;;5048532;28;20544;-81
2021/12/05 03:59:16;;;;;;;14.07;5.15;;;4.40;99.90;;;;;;5047669;28;20055;-81
2021/12/05 04:01:42;;;;;;;13.88;4.65;;;4.30;99.90;;;;;;5048014;28;20052;-81
2021/12/05 04:04:10;;;;;;;13.43;5.25;;;4.30;99.90;;;;;;5048292;28;20054;-81
2021/12/05 04:06:37;;;;;;;17.55;4.88;;;4.30;99.90;;;;;;5046950;28;20041;-81
2021/12/05 04:09:07;;;;;;;13.88;5.43;;;6.00;99.90;;;;;;5031783;28;20515;-81
2021/12/05 04:11:37;;;;;;;12.07;4.95;;;4.30;99.90;;;;;;5065136;28;20132;-81
2021/12/05 04:14:10;;;;;;;13.73;5.35;;;4.40;99.90;;;;;;5031759;28;20048;-81
2021/12/05 04:16:37;;;;;;;16.95;5.38;;;4.30;99.90;;;;;;5047331;28;20076;-81
2021/12/05 04:19:04;;;;;;;13.18;5.50;;;4.30;99.90;;;;;;5047268;28;20247;-81
2021/12/05 04:21:32;;;;;;;15.55;6.00;;;4.30;99.90;;;;;;5048113;28;20051;-81
2021/12/05 04:23:59;;;;;;;17.65;6.10;;;4.20;99.90;;;;;;5046807;28;20233;-81
2021/12/05 04:26:26;;;;;;;16.58;6.20;;;4.20;99.90;;;;;;5066020;28;20127;-81
2021/12/05 04:28:53;;;;;;;12.93;5.95;;;4.20;99.90;;;;;;5031440;28;20386;-81
2021/12/05 04:31:21;;;;;;;16.92;6.63;;;4.20;99.90;;;;;;5047172;28;20548;-81
2021/12/05 04:33:48;;;;;;;20.35;6.95;;;4.20;99.90;;;;;;5065753;28;20040;-81
2021/12/05 04:36:14;;;;;;;15.05;6.38;;;4.20;99.90;;;;;;5065168;28;20150;-81
2021/12/05 04:38:40;;;;;;;18.92;6.25;;;4.20;99.90;;;;;;5048231;28;20131;-81
2021/12/05 04:41:06;;;;;;;17.70;7.07;;;4.20;99.90;;;;;;5046834;28;20656;-81
2021/12/05 04:43:37;;;;;;;22.40;6.60;;;4.20;99.90;;;;;;5048003;28;20510;-81
2021/12/05 04:46:11;;;;;;;19.92;5.80;;;4.20;99.90;;;;;;5047137;28;20116;-81
2021/12/05 04:48:38;;;;;;;19.13;7.35;;;4.20;99.90;;;;;;5047806;28;20052;-81
2021/12/05 04:51:05;;;;;;;17.35;7.07;;;4.20;99.90;;;;;;5048275;28;20178;-81
2021/12/05 04:53:31;;;;;;;19.83;6.47;;;4.20;99.90;;;;;;5047036;28;20408;-81
2021/12/05 04:55:58;;;;;;;16.13;7.35;;;4.20;99.90;;;;;;5047756;28;20045;-81
2021/12/05 04:58:24;;;;;;;18.52;7.53;;;4.20;99.90;;;;;;5046070;28;20048;-81
2021/12/05 05:00:53;;;;;;;24.02;7.00;;;4.40;99.90;;;;;;5047098;28;20090;-81
2021/12/05 05:03:19;;;;;;;18.17;7.10;;;4.20;99.90;;;;;;5030278;28;20045;-81
2021/12/05 05:05:52;;;;;;;18.25;6.82;;;4.20;99.90;;;;;;5046740;28;20051;-81
2021/12/05 05:08:19;;;;;;;16.38;7.50;;;4.20;99.90;;;;;;5031719;28;20053;-81
2021/12/05 05:10:45;;;;;;;15.48;7.15;;;4.20;99.90;;;;;;5045867;28;20176;-81
2021/12/05 05:13:11;;;;;;;14.73;7.10;;;4.20;99.90;;;;;;5030865;28;20049;-82
2021/12/05 05:15:37;;;;;;;22.13;7.07;;;5.40;99.90;;;;;;5046229;28;20056;-81
2021/12/05 05:18:05;;;;;;;15.90;7.68;;;4.20;99.90;;;;;;5047036;28;20040;-81
2021/12/05 05:20:50;;;;;;;18.67;7.45;;;4.20;99.90;;;;;;5047093;28;20049;-81
2021/12/05 05:44:44;;;;;;;12.10;6.82;;;4.10;99.90;;;;;;5046077;28;20044;-82
2021/12/05 05:49:58;;;;;;;14.38;7.03;;;4.10;99.90;;;;;;5031360;28;20116;-81
2021/12/05 05:52:23;;;;;;;20.52;6.72;;;4.10;99.90;;;;;;5047209;28;20418;-81
2021/12/05 05:54:51;;;;;;;22.45;6.30;;;4.10;99.90;;;;;;5046651;28;20056;-82
2021/12/05 05:57:28;;;;;;;26.20;6.85;;;4.10;99.90;;;;;;5046081;28;20048;-81
2021/12/05 06:00:09;;;;;;;18.08;6.93;;;4.10;99.90;;;;;;5047182;28;20047;-81
2021/12/05 06:05:19;;;;;;;20.88;6.40;;;4.10;99.90;;;;;;5046787;28;20148;-81
2021/12/05 06:07:46;;;;;;;17.38;6.85;;;4.10;99.90;;;;;;5046582;28;20583;-81
2021/12/05 06:10:23;;;;;;;16.27;5.53;;;4.10;99.90;;;;;;5046647;28;20057;-82
2021/12/05 06:12:49;;;;;;;18.95;5.90;;;4.30;99.90;;;;;;5030983;28;20088;-81
2021/12/05 06:15:18;;;;;;;17.05;6.32;;;4.10;99.90;;;;;;5046095;28;20507;-83
2021/12/05 06:17:44;;;;;;;17.95;6.70;;;4.10;99.90;;;;;;5047112;28;21041;-81
2021/12/05 06:20:13;;;;;;;18.60;6.40;;;4.10;99.90;;;;;;5047078;28;20044;-82
2021/12/05 06:22:39;;;;;;;14.15;5.88;;;4.10;99.90;;;;;;5030724;28;20047;-81
2021/12/05 06:25:09;;;;;;;15.95;6.22;;;4.10;99.90;;;;;;5030921;28;20067;-82
2021/12/05 06:27:35;;;;;;;12.38;5.68;;;4.10;99.90;;;;;;5045978;28;20065;-81
2021/12/05 06:30:12;;;;;;;14.35;4.93;;;4.40;99.90;;;;;;5047606;28;20151;-82
2021/12/05 06:38:04;;;;;;;18.48;5.00;;;4.00;99.90;;;;;;5032683;28;20095;-83
2021/12/05 06:48:43;;;;;;;14.98;4.63;;;3.90;99.90;;;;;;5029033;28;20080;-82
2021/12/05 06:51:15;;;;;;;16.05;4.68;;;3.90;99.90;;;;;;5030496;28;20503;-82
2021/12/05 06:53:41;;;;;;;18.90;4.95;;;3.90;99.90;;;;;;5046515;28;20428;-81
2021/12/05 06:56:07;;;;;;;11.68;4.22;;;3.90;99.90;;;;;;5046461;28;20523;-82
2021/12/05 06:58:34;;;;;;;25.75;5.30;;;3.90;99.90;;;;;;5046248;28;20037;-82
2021/12/05 07:01:04;;;;;;;11.38;4.43;;;5.00;99.90;;;;;;5046407;28;20123;-83
2021/12/05 07:03:30;;;;;;;12.57;4.03;;;3.90;99.90;;;;;;5030581;28;20041;-82
2021/12/05 07:06:11;;;;;;;10.13;3.60;;;3.80;99.90;;;;;;5046660;28;20539;-83
2021/12/05 07:08:40;;;;;;;11.52;4.50;;;3.90;99.90;;;;;;5033003;28;20049;-83
2021/12/05 07:11:20;;;;;;;8.98;3.67;;;3.90;99.90;;;;;;5046100;28;20500;-83
2021/12/05 07:19:30;;;;;;;14.30;4.28;;;3.80;99.90;;;;;;5005271;28;20074;-83
2021/12/05 07:22:00;;;;;;;8.35;4.22;;;3.80;99.90;;;;;;5005216;28;20164;-83
2021/12/05 07:40:29;;;;;;;17.52;5.10;;;4.90;99.90;;;;;;5045427;28;20053;-83
2021/12/05 07:42:59;;;;;;;14.88;4.60;;;3.80;99.90;;;;;;5046152;28;20083;-83
2021/12/05 07:45:41;;;;;;;11.50;4.18;;;3.80;99.90;;;;;;5044611;28;20052;-82
2021/12/05 07:48:21;;;;;;;8.03;3.90;;;5.20;99.90;;;;;;5045295;28;20048;-83
2021/12/05 07:50:55;;;;;;;18.67;5.05;;;3.80;99.90;;;;;;5045906;28;20087;-84
2021/12/05 07:53:27;;;;;;;20.85;4.80;;;3.80;99.90;;;;;;5044956;28;20045;-82
2021/12/05 07:55:56;;;;;;;15.57;5.68;;;3.80;99.90;;;;;;5045350;28;20124;-83
2021/12/05 08:14:57;;;;;;;11.02;4.10;;;3.80;99.90;;;;;;5045739;28;20102;-84
2021/12/05 08:17:23;;;;;;;17.70;4.70;;;3.90;99.90;;;;;;5045640;28;20049;-85
2021/12/05 08:19:49;;;;;;;12.27;5.65;;;3.90;99.90;;;;;;5028267;28;20094;-87
2021/12/05 08:22:15;;;;;;;10.75;5.47;;;3.90;99.90;;;;;;5045913;28;20045;-88
2021/12/05 08:24:45;;;;;;;13.15;5.88;;;3.90;99.90;;;;;;5045902;28;20520;-85
2021/12/05 08:27:13;;;;;;;12.30;5.32;;;3.90;99.90;;;;;;5044853;28;20087;-83
2021/12/05 08:29:51;;;;;;;12.57;5.22;;;3.90;99.90;;;;;;5029747;28;20546;-84
2021/12/05 08:32:52;;;;;;;17.98;6.05;;;4.50;99.90;;;;;;5043574;28;20132;-85
2021/12/05 08:40:54;;;;;;;13.40;6.50;;;4.20;99.90;;;;;;5044469;28;20053;-84
2021/12/05 09:20:35;;;;;;;16.77;6.97;;;4.40;99.90;;;;;;5045753;28;20075;-88
2021/12/05 09:29:48;;;;;;;17.25;7.47;;;4.40;99.90;;;;;;5049107;28;20047;-86
2021/12/05 10:08:41;;;;;;;16.10;7.07;;;4.40;99.90;;;;;;5048817;28;20063;-86
2021/12/05 10:13:44;;;;;;;18.65;6.57;;;4.30;99.90;;;;;;5048513;28;20053;-89
2021/12/05 10:16:27;;;;;;;19.83;6.25;;;4.30;99.90;;;;;;5047806;28;20470;-87
2021/12/05 10:26:22;;;;;;;17.73;7.13;;;4.30;99.90;;;;;;5048560;28;20041;-85
2021/12/05 10:27:25;;;;;;;12.07;5.93;;;4.40;99.90;;;;;;5047372;28;20095;-84
2021/12/05 10:38:34;;;;;;;18.58;7.05;;;4.30;99.90;;;;;;5046871;28;20436;-89
2021/12/05 10:43:44;;;;;;;18.63;7.05;;;4.40;99.90;;;;;;5045945;28;20049;-87
2021/12/05 10:46:13;;;;;;;25.00;7.47;;;4.40;99.90;;;;;;5047231;28;20049;-90
2021/12/05 10:48:44;;;;;;;16.65;7.72;;;4.40;99.90;;;;;;5045528;28;20041;-86
2021/12/05 10:51:13;;;;;;;13.85;6.45;;;4.40;99.90;;;;;;5048314;28;20041;-87
2021/12/05 10:53:48;;;;;;;14.55;6.57;;;4.40;99.90;;;;;;5047257;28;20048;-86
2021/12/05 10:56:39;;;;;;;13.93;7.47;;;4.50;99.90;;;;;;5028390;28;20481;-87
2021/12/05 10:59:13;;;;;;;15.00;7.60;;;4.50;99.90;;;;;;5047992;28;20057;-85
2021/12/05 11:01:38;;;;;;;;;;;4.50;99.90;;;;;;5047551;28;20055;-87
2021/12/05 11:04:13;;;;;;;19.33;7.22;;;4.50;99.90;;;;;;5047455;28;20392;-85
2021/12/05 11:06:40;;;;;;;11.93;6.35;;;4.50;99.90;;;;;;5045856;28;20085;-86
2021/12/05 11:09:10;;;;;;;17.15;7.80;;;4.60;99.90;;;;;;5046876;28;20049;-89
2021/12/05 11:11:37;;;;;;;19.92;7.13;;;4.50;99.90;;;;;;5029714;28;20088;-85
2021/12/05 11:14:08;;;;;;;15.65;7.80;;;4.60;99.90;;;;;;5043199;28;20051;-87
2021/12/05 11:16:37;;;;;;;16.95;7.28;;;4.80;99.90;;;;;;5044567;28;20139;-88
2021/12/05 11:19:27;;;;;;;18.38;7.07;;;5.80;99.90;;;;;;5046760;28;20044;-86
2021/12/05 11:22:18;;;;;;;12.32;6.90;;;4.70;99.90;;;;;;5047131;28;20075;-85
2021/12/05 11:24:46;;;;;;;18.67;7.47;;;4.70;99.90;;;;;;5045953;28;20045;-87
2021/12/05 11:27:31;;;;;;;16.00;7.75;;;4.80;99.90;;;;;;5028522;28;20080;-87
2021/12/05 11:30:13;;;;;;;16.13;7.43;;;4.80;99.90;;;;;;5044355;28;20548;-88
2021/12/05 11:32:51;;;;;;;18.48;7.85;;;4.80;99.90;;;;;;5044290;28;20067;-87
2021/12/05 11:35:39;;;;;;;15.88;6.55;;;4.90;99.90;;;;;;5045508;28;20064;-87
2021/12/05 11:38:18;;;;;;;16.85;7.38;;;4.90;99.90;;;;;;5030077;28;20087;-85
2021/12/05 11:40:47;;;;;;;14.43;7.22;;;4.90;99.90;;;;;;5045112;28;20135;-86
2021/12/05 11:43:23;;;;;;;13.27;7.45;;;5.00;99.90;;;;;;5046683;28;20124;-86
2021/12/05 11:46:08;;;;;;;14.93;7.32;;;5.00;99.90;;;;;;5047866;28;20128;-86
2021/12/05 11:48:39;;;;;;;17.60;7.07;;;5.00;99.90;;;;;;5047441;28;20447;-86
2021/12/05 11:51:31;;;;;;;13.10;7.43;;;5.40;99.90;;;;;;5030711;28;20044;-85
2021/12/05 11:54:11;;;;;;;17.58;7.00;;;5.20;99.90;;;;;;5048879;28;20119;-87
2021/12/05 11:56:42;;;;;;;16.30;7.55;;;5.20;99.90;;;;;;5045357;28;20037;-85
2021/12/05 11:59:13;;;;;;;15.68;7.18;;;5.30;99.90;;;;;;5028971;28;20049;-89
2021/12/05 12:01:41;;;;;;;9.93;6.75;;;5.40;99.90;;;;;;5044766;28;20119;-91
2021/12/05 12:04:09;;;;;;;15.98;6.93;;;6.00;99.90;;;;;;5045046;28;20045;-91
2021/12/05 12:06:35;;;;;;;12.05;6.28;;;5.50;99.90;;;;;;5044101;28;20100;-86
2021/12/05 12:09:03;;;;;;;14.32;6.75;;;5.60;99.90;;;;;;5044545;28;20041;-88
2021/12/05 12:11:29;;;;;;;12.02;7.18;;;5.60;99.90;;;;;;5027914;28;20060;-88
2021/12/05 12:13:54;;;;;;;16.38;6.97;;;5.60;99.90;;;;;;5027175;28;20053;-87
2021/12/05 12:16:21;;;;;;;10.48;6.30;;;7.50;99.90;;;;;;5028233;28;20045;-90
2021/12/05 12:18:49;;;;;;;13.38;6.60;;;5.70;99.90;;;;;;5046304;28;20120;-88
2021/12/05 12:21:18;;;;;;;15.95;6.70;;;5.70;99.90;;;;;;5027572;28;20066;-92
2021/12/05 12:23:47;;;;;;;12.75;7.03;;;6.30;99.90;;;;;;5044543;28;20069;-85
2021/12/05 12:26:13;;;;;;;14.93;7.15;;;5.70;99.90;;;;;;5044629;28;20040;-86
2021/12/05 12:28:40;;;;;;;14.80;7.15;;;5.70;99.90;;;;;;5044898;28;20553;-84
2021/12/05 12:31:25;;;;;;;14.15;6.60;;;5.80;99.90;;;;;;5026522;28;20052;-84
2021/12/05 12:33:57;;;;;;;13.15;6.95;;;5.80;99.90;;;;;;5045906;28;20374;-85
2021/12/05 12:36:35;;;;;;;15.95;6.90;;;5.80;99.90;;;;;;5044022;28;20433;-84
2021/12/05 12:39:04;;;;;;;15.05;6.82;;;5.80;99.90;;;;;;5026922;28;20045;-83
2021/12/05 12:41:33;;;;;;;16.05;6.53;;;6.00;99.90;;;;;;5046221;28;20060;-83
2021/12/05 12:44:03;;;;;;;12.43;6.57;;;5.90;99.90;;;;;;5043965;28;20041;-83
2021/12/05 12:46:49;;;;;;;14.77;6.18;;;5.90;99.90;;;;;;5045160;28;20083;-85
2021/12/05 12:49:14;;;;;;;11.35;5.85;;;7.70;99.90;;;;;;5045271;28;20049;-82
2021/12/05 12:51:56;;;;;;;13.52;5.85;;;5.90;99.90;;;;;;5047581;28;20524;-86
2021/12/05 12:54:42;;;;;;;13.35;5.35;;;6.00;99.90;;;;;;5046503;28;20142;-86
2021/12/05 12:57:19;;;;;;;10.70;5.57;;;5.90;99.90;;;;;;5046145;28;20040;-88
2021/12/05 12:59:55;;;;;;;18.38;5.45;;;5.90;99.90;;;;;;5047360;28;20053;-86
2021/12/05 13:02:48;;;;;;;8.73;5.80;;;5.80;99.90;;;;;;5046918;28;20091;-89
2021/12/05 13:11:07;;;;;;;8.32;4.55;;;6.10;99.90;;;;;;5043637;28;20455;-81
2021/12/05 13:13:36;;;;;;;15.15;4.97;;;5.70;99.90;;;;;;5026425;28;20501;-82
2021/12/05 13:16:13;;;;;;;9.20;5.97;;;6.60;99.90;;;;;;5045190;28;20041;-81
2021/12/05 13:18:41;;;;;;;14.18;5.05;;;5.90;99.90;;;;;;5043991;28;20064;-81
2021/12/05 13:21:36;;;;;;;11.07;5.05;;;6.00;99.90;;;;;;5027191;28;20106;-81
2021/12/05 13:24:32;;;;;;;11.43;5.93;;;6.50;99.90;;;;;;5044061;28;20041;-81
2021/12/05 13:27:02;;;;;;;12.77;5.85;;;5.70;99.90;;;;;;5043811;28;20053;-82
2021/12/05 13:29:31;;;;;;;13.82;5.35;;;5.70;99.90;;;;;;5042965;28;20045;-79
2021/12/05 13:32:13;;;;;;;15.43;5.32;;;5.70;99.90;;;;;;5044567;28;20041;-82
2021/12/05 13:34:46;;;;;;;11.07;5.63;;;5.70;99.90;;;;;;5044019;28;20652;-81
2021/12/05 13:37:16;;;;;;;9.43;5.17;;;5.80;99.90;;;;;;5045331;28;20374;-82
2021/12/05 13:40:38;;;;;;;13.23;5.68;;;5.80;99.90;;;;;;5042351;28;20052;-82
2021/12/05 13:43:09;;;;;;;18.67;4.95;;;5.50;99.90;;;;;;4966200;28;20137;-82
2021/12/05 13:45:40;;;;;;;12.15;5.25;;;5.90;99.90;;;;;;5035213;28;20496;-83
2021/12/05 13:48:15;;;;;;;12.27;5.07;;;6.40;99.90;;;;;;5025740;28;20049;-81
2021/12/05 13:51:01;;;;;;;12.57;5.32;;;5.90;99.90;;;;;;5044752;28;20056;-81
2021/12/05 13:53:34;;;;;;;12.75;4.75;;;5.90;99.90;;;;;;5046384;28;20142;-84
2021/12/05 13:56:11;;;;;;;11.07;5.43;;;5.80;99.90;;;;;;5044747;28;20117;-83
2021/12/05 13:58:47;;;;;;;15.00;5.15;;;5.80;99.90;;;;;;5043483;28;20095;-84
2021/12/05 14:01:18;;;;;;;9.45;5.28;;;5.80;99.90;;;;;;5044773;28;20091;-84
2021/12/05 14:03:58;;;;;;;15.82;5.28;;;6.90;99.90;;;;;;5044289;28;20469;-86
2021/12/05 14:06:57;;;;;;;8.20;5.13;;;5.70;99.90;;;;;;5043968;28;20081;-84
2021/12/05 14:09:40;;;;;;;16.75;5.47;;;5.70;99.90;;;;;;5026773;28;20068;-84
2021/12/05 14:12:08;;;;;;;17.75;5.20;;;5.60;99.90;;;;;;5027780;28;20496;-87
2021/12/05 14:14:53;;;;;;;9.50;5.85;;;5.60;99.90;;;;;;5044397;28;20048;-82
2021/12/05 14:17:21;;;;;;;14.05;5.57;;;5.60;99.90;;;;;;5044358;28;20112;-82
2021/12/05 14:19:50;;;;;;;12.02;6.03;;;7.30;99.90;;;;;;5046367;28;20128;-85
2021/12/05 14:22:18;;;;;;;19.40;6.70;;;5.50;99.90;;;;;;5027167;28;20055;-84
2021/12/05 14:24:49;;;;;;;14.00;6.55;;;5.50;99.90;;;;;;5045898;28;20037;-85
2021/12/05 14:27:24;;;;;;;17.40;6.93;;;5.50;99.90;;;;;;5044500;28;20397;-84
2021/12/05 14:29:51;;;;;;;16.38;10.32;;;5.50;99.90;;;;;;5027817;28;20045;-84
2021/12/05 14:32:29;;;;;;;17.17;8.65;;;5.50;99.90;;;;;;5048680;28;20512;-84
2021/12/05 14:35:11;;;;;;;14.57;6.82;;;5.50;99.90;;;;;;5048144;28;20080;-86
2021/12/05 14:37:42;;;;;;;23.50;8.35;;;5.40;99.90;;;;;;5030530;28;20385;-80
2021/12/05 14:40:14;;;;;;;14.55;6.63;;;5.40;99.90;;;;;;5047684;28;20120;-83
2021/12/05 14:42:43;;;;;;;15.40;7.75;;;5.30;99.90;;;;;;5046014;28;20428;-84
2021/12/05 14:45:21;;;;;;;18.58;7.25;;;5.30;99.90;;;;;;5047420;28;20056;-84
2021/12/05 14:47:52;;;;;;;13.98;7.10;;;5.30;99.90;;;;;;5044664;28;20045;-84
2021/12/05 14:50:25;;;;;;;15.70;7.30;;;6.20;99.90;;;;;;5045978;28;20094;-85
2021/12/05 14:52:54;;;;;;;14.27;7.63;;;5.90;99.90;;;;;;5045187;28;20152;-87
2021/12/05 14:55:23;;;;;;;15.05;7.32;;;5.20;99.90;;;;;;5045313;28;20083;-86
2021/12/05 14:57:52;;;;;;;15.00;7.50;;;5.20;99.90;;;;;;5027989;28;20037;-85
2021/12/05 15:00:29;;;;;;;19.17;8.07;;;5.20;99.90;;;;;;5028236;28;20072;-86
2021/12/05 15:03:13;;;;;;;17.80;6.85;;;5.20;99.90;;;;;;5047745;28;20059;-84
2021/12/05 15:05:42;;;;;;;14.93;6.93;;;5.20;99.90;;;;;;5029145;28;20420;-82
2021/12/05 15:08:17;;;;;;;16.50;8.27;;;5.40;99.90;;;;;;5045215;28;20041;-83
2021/12/05 15:10:45;;;;;;;14.52;7.60;;;6.10;99.90;;;;;;5054404;28;20059;-87
2021/12/05 15:13:12;;;;;;;15.70;7.65;;;5.10;99.90;;;;;;5065848;28;20041;-83
2021/12/05 15:15:39;;;;;;;20.70;7.78;;;5.90;99.90;;;;;;5049025;28;20080;-84
2021/12/05 15:18:12;;;;;;;17.27;8.30;;;5.10;99.90;;;;;;5066017;28;20314;-88
2021/12/05 15:20:38;;;;;;;16.60;6.40;;;7.00;99.90;;;;;;5066838;28;20045;-85
2021/12/05 15:23:07;;;;;;;16.40;7.47;;;5.10;99.90;;;;;;5048905;28;20045;-81
2021/12/05 15:25:34;;;;;;;16.80;7.63;;;6.10;99.90;;;;;;5066159;28;20044;-88
2021/12/05 15:28:00;;;;;;;16.42;7.55;;;5.10;99.90;;;;;;5032519;28;20120;-85
2021/12/05 15:30:30;;;;;;;15.85;7.40;;;5.00;99.90;;;;;;5048147;28;20048;-84
2021/12/05 15:33:00;;;;;;;19.73;7.55;;;5.00;99.90;;;;;;5050100;28;20067;-86
2021/12/05 15:35:27;;;;;;;15.98;7.20;;;4.90;99.90;;;;;;5072989;28;20052;-83
2021/12/05 15:37:59;;;;;;;20.42;8.57;;;4.90;99.90;;;;;;5033486;28;20436;-84
2021/12/05 15:40:26;;;;;;;15.13;8.73;;;4.90;99.90;;;;;;5066208;28;20131;-84
2021/12/05 15:42:59;;;;;;;21.48;9.68;;;6.70;99.90;;;;;;5032001;28;20045;-86
2021/12/05 15:45:25;;;;;;;23.95;10.05;;;4.20;99.90;;;;;;5048794;28;20049;-85
2021/12/05 15:47:51;;;;;;;19.85;10.20;;;6.60;99.90;;;;;;5047100;28;20078;-83
2021/12/05 15:50:17;;;;;;;18.60;9.30;;;4.80;99.90;;;;;;5032143;28;20114;-87
2021/12/05 15:52:44;;;;;;;19.55;10.40;;;5.20;99.90;;;;;;5048084;28;20269;-88
2021/12/05 15:55:39;;;;;;;19.20;9.98;;;6.30;99.90;;;;;;5066054;28;20631;-85
2021/12/05 15:58:12;;;;;;;18.30;9.55;;;4.80;99.90;;;;;;5048649;28;20400;-83
2021/12/05 16:00:51;;;;;;;19.30;9.25;;;4.80;99.90;;;;;;5046067;28;20131;-85
2021/12/05 16:03:24;;;;;;;17.50;10.23;;;4.80;99.90;;;;;;5048230;28;20048;-88
2021/12/05 16:06:00;;;;;;;18.20;10.23;;;4.80;99.90;;;;;;5048206;28;20041;-83
2021/12/05 16:08:32;;;;;;;20.60;11.02;;;4.80;99.90;;;;;;5046592;28;20393;-85
2021/12/05 16:10:59;;;;;;;17.10;10.45;;;4.80;99.90;;;;;;5066068;28;20136;-85
2021/12/05 16:13:36;;;;;;;28.35;10.45;;;5.20;99.90;;;;;;5064710;28;20052;-83
2021/12/05 16:16:11;;;;;;;21.73;11.00;;;4.70;99.90;;;;;;5047851;28;20037;-84
2021/12/05 16:18:39;;;;;;;21.77;10.82;;;4.70;99.90;;;;;;5047266;28;20242;-86
2021/12/05 16:21:17;;;;;;;19.50;10.48;;;4.70;99.90;;;;;;5064803;28;20491;-85
2021/12/05 16:23:44;;;;;;;16.05;9.82;;;4.70;99.90;;;;;;5047272;28;20094;-86
2021/12/05 16:26:14;;;;;;;20.27;11.35;;;5.40;99.90;;;;;;5046882;28;20087;-84
2021/12/05 16:28:41;;;;;;;21.70;11.70;;;4.60;99.90;;;;;;5047997;28;20476;-83
2021/12/05 16:31:09;;;;;;;17.38;10.65;;;4.60;99.90;;;;;;5064820;28;20094;-86
2021/12/05 16:33:36;;;;;;;22.60;11.05;;;4.60;99.90;;;;;;5046868;28;20578;-84
2021/12/05 16:36:03;;;;;;;20.80;11.15;;;4.60;99.90;;;;;;5030321;28;20118;-86
2021/12/05 16:38:41;;;;;;;23.10;11.10;;;4.60;99.90;;;;;;5046745;28;20037;-83
2021/12/05 16:41:29;;;;;;;23.05;11.88;;;5.10;99.90;;;;;;5032073;28;20462;-86
2021/12/05 16:43:59;;;;;;;18.00;9.75;;;4.60;99.90;;;;;;5047394;28;20048;-86
2021/12/05 16:46:27;;;;;;;21.63;9.73;;;4.50;99.90;;;;;;5048629;28;20091;-85
2021/12/05 16:48:56;;;;;;;19.88;11.25;;;5.90;99.90;;;;;;5048750;28;20049;-83
2021/12/05 16:51:30;;;;;;;21.30;11.02;;;4.50;99.90;;;;;;5030692;28;20091;-86
2021/12/05 16:54:04;;;;;;;23.33;11.25;;;4.50;99.90;;;;;;5047372;28;20400;-84
2021/12/05 16:56:39;;;;;;;20.90;10.88;;;4.50;99.90;;;;;;5030660;28;20052;-85
2021/12/05 16:59:12;;;;;;;20.75;10.38;;;5.30;99.90;;;;;;5065990;28;20719;-84
2021/12/05 17:01:38;;;;;;;20.83;11.02;;;5.90;99.90;;;;;;5047385;28;20056;-85
2021/12/05 17:04:04;;;;;;;22.52;11.88;;;4.50;99.90;;;;;;5047346;28;20048;-85
2021/12/05 17:06:47;;;;;;;31.17;17.63;;;4.40;99.90;;;;;;5047977;28;20403;-86
2021/12/05 17:09:13;;;;;;;18.60;8.80;;;4.40;99.90;;;;;;5046395;28;20040;-84
2021/12/05 17:11:39;;;;;;;20.30;10.48;;;4.40;99.90;;;;;;5043442;28;20710;-83
2021/12/05 17:14:05;;;;;;;17.65;10.65;;;4.40;99.90;;;;;;5044420;28;20071;-84
2021/12/05 17:16:32;;;;;;;24.13;11.80;;;4.40;99.90;;;;;;5044787;28;20053;-87
2021/12/05 17:19:06;;;;;;;18.95;11.00;;;4.40;99.90;;;;;;5044576;28;20045;-85
2021/12/05 17:21:49;;;;;;;21.65;11.20;;;4.30;99.90;;;;;;5025614;28;20048;-84
2021/12/05 17:24:32;;;;;;;16.60;8.27;;;5.50;99.90;;;;;;5043395;28;20045;-84
2021/12/05 17:27:04;;;;;;;16.00;9.98;;;4.20;99.90;;;;;;5042970;28;20138;-83
2021/12/05 17:29:34;;;;;;;20.30;11.15;;;4.20;99.90;;;;;;5026929;28;20399;-84
2021/12/05 17:32:07;;;;;;;20.35;11.65;;;4.20;99.90;;;;;;5042343;28;20044;-85
2021/12/05 17:34:37;;;;;;;13.27;8.25;;;4.10;99.90;;;;;;5042220;28;20053;-83
2021/12/05 17:37:11;;;;;;;17.58;10.18;;;4.20;99.90;;;;;;5042501;28;20060;-84
2021/12/05 17:39:43;;;;;;;22.00;11.75;;;4.10;99.90;;;;;;5042252;28;20439;-86
2021/12/05 17:42:12;;;;;;;20.42;10.48;;;4.20;99.90;;;;;;5044957;28;20459;-84
2021/12/05 17:44:40;;;;;;;24.42;11.00;;;4.20;99.90;;;;;;5044394;28;20183;-84
2021/12/05 17:47:08;;;;;;;20.85;10.55;;;4.20;99.90;;;;;;5043019;28;20060;-84
2021/12/05 17:49:37;;;;;;;18.40;11.07;;;4.20;99.90;;;;;;5043549;28;20529;-85
2021/12/05 17:52:05;;;;;;;18.63;10.75;;;4.20;99.90;;;;;;5042428;28;20374;-82
2021/12/05 17:54:38;;;;;;;22.25;11.07;;;4.10;99.90;;;;;;5043087;28;20045;-85
2021/12/05 17:57:13;;;;;;;20.08;12.00;;;4.10;99.90;;;;;;5043028;28;20068;-83
2021/12/05 18:05:03;;;;;;;19.02;10.23;;;4.10;99.90;;;;;;5046460;28;20453;-82
2021/12/05 18:07:29;;;;;;;23.27;11.10;;;4.00;99.90;;;;;;5048143;28;20063;-84
2021/12/05 18:09:55;;;;;;;19.88;10.57;;;4.00;99.90;;;;;;5048559;28;20410;-84
2021/12/05 18:12:31;;;;;;;15.65;9.68;;;4.00;99.90;;;;;;5032782;28;20056;-83
2021/12/05 18:14:57;;;;;;;17.83;10.57;;;4.00;99.90;;;;;;5051418;28;20055;-87
2021/12/05 18:17:23;;;;;;;17.48;10.88;;;5.50;99.90;;;;;;5034152;28;20115;-81
2021/12/05 18:19:49;;;;;;;16.85;9.88;;;3.90;99.90;;;;;;5034616;28;20124;-82
2021/12/05 18:22:14;;;;;;;17.70;10.82;;;3.80;99.90;;;;;;5032878;28;20044;-82
2021/12/05 18:24:43;;;;;;;17.55;10.60;;;3.90;99.90;;;;;;5068066;28;20052;-81